sensor_id;sensor_type;location;lat;lon;timestamp;pressure;altitude;pressure_sealevel;temperature;humidity
13434;BME280;6789;47.678;9.158;2023-01-31T00:05:02;97785.06;;;1.57;100.00
13434;BME280;6789;47.678;9.158;2023-01-31T00:09:59;97784.00;;;1.50;100.00
13434;BME280;6789;47.678;9.158;2023-01-31T00:14:51;97779.69;;;1.41;100.00
13434;BME280;6789;47.678;9.158;2023-01-31T00:19:42;97776.84;;;1.35;100.00
13434;BME280;6789;47.678;9.158;2023-01-31T00:24:34;97777.84;;;1.24;100.00
13434;BME280;6789;47.678;9.158;2023-01-31T00:29:26;97770.41;;;1.12;100.00
13434;BME280;6789;47.678;9.158;2023-01-31T00:34:18;97769.91;;;0.99;100.00
13434;BME280;6789;47.678;9.158;2023-01-31T00:39:10;97761.47;;;0.97;100.00
13434;BME280;6789;47.678;9.158;2023-01-31T00:44:02;97755.66;;;0.95;100.00
13434;BME280;6789;47.678;9.158;2023-01-31T00:48:55;97755.38;;;0.88;100.00
13434;BME280;6789;47.678;9.158;2023-01-31T00:53:48;97756.25;;;0.79;100.00
13434;BME280;6789;47.678;9.158;2023-01-31T00:58:41;97755.81;;;0.84;100.00
13434;BME280;6789;47.678;9.158;2023-01-31T01:03:33;97748.63;;;0.78;100.00
13434;BME280;6789;47.678;9.158;2023-01-31T01:08:25;97751.09;;;0.70;100.00
13434;BME280;6789;47.678;9.158;2023-01-31T01:13:17;97750.81;;;0.64;100.00
13434;BME280;6789;47.678;9.158;2023-01-31T01:18:09;97751.75;;;0.72;100.00
13434;BME280;6789;47.678;9.158;2023-01-31T01:23:01;97751.34;;;0.76;100.00
13434;BME280;6789;47.678;9.158;2023-01-31T01:27:52;97744.28;;;0.78;100.00
13434;BME280;6789;47.678;9.158;2023-01-31T01:32:44;97749.72;;;0.75;100.00
13434;BME280;6789;47.678;9.158;2023-01-31T01:37:37;97763.56;;;0.74;100.00
13434;BME280;6789;47.678;9.158;2023-01-31T01:42:34;97757.03;;;0.80;100.00
13434;BME280;6789;47.678;9.158;2023-01-31T01:48:02;97764.91;;;0.88;100.00
13434;BME280;6789;47.678;9.158;2023-01-31T01:53:03;97757.81;;;0.99;100.00
13434;BME280;6789;47.678;9.158;2023-01-31T01:58:06;97765.13;;;1.04;100.00
13434;BME280;6789;47.678;9.158;2023-01-31T02:03:04;97751.84;;;0.99;100.00
13434;BME280;6789;47.678;9.158;2023-01-31T02:07:58;97758.34;;;0.93;100.00
13434;BME280;6789;47.678;9.158;2023-01-31T02:12:51;97759.44;;;1.00;100.00
13434;BME280;6789;47.678;9.158;2023-01-31T02:17:43;97773.16;;;1.10;100.00
13434;BME280;6789;47.678;9.158;2023-01-31T02:23:01;97757.91;;;1.07;100.00
13434;BME280;6789;47.678;9.158;2023-01-31T02:28:16;97773.81;;;1.12;100.00
13434;BME280;6789;47.678;9.158;2023-01-31T02:33:30;97778.56;;;1.17;100.00
13434;BME280;6789;47.678;9.158;2023-01-31T02:38:50;97780.00;;;1.29;100.00
13434;BME280;6789;47.678;9.158;2023-01-31T02:44:14;97781.44;;;1.14;100.00
13434;BME280;6789;47.678;9.158;2023-01-31T02:49:39;97800.00;;;1.27;100.00
13434;BME280;6789;47.678;9.158;2023-01-31T02:54:34;97793.63;;;1.21;100.00
13434;BME280;6789;47.678;9.158;2023-01-31T02:59:47;97790.72;;;0.97;100.00
13434;BME280;6789;47.678;9.158;2023-01-31T03:04:39;97789.78;;;0.89;100.00
13434;BME280;6789;47.678;9.158;2023-01-31T03:15:41;97783.66;;;0.90;100.00
13434;BME280;6789;47.678;9.158;2023-01-31T03:21:02;97786.50;;;0.87;100.00
13434;BME280;6789;47.678;9.158;2023-01-31T03:26:02;97786.28;;;1.17;100.00
13434;BME280;6789;47.678;9.158;2023-01-31T03:31:16;97790.13;;;1.13;100.00
13434;BME280;6789;47.678;9.158;2023-01-31T03:36:29;97810.44;;;0.89;100.00
13434;BME280;6789;47.678;9.158;2023-01-31T03:46:49;97803.84;;;1.04;100.00
13434;BME280;6789;47.678;9.158;2023-01-31T03:51:49;97817.88;;;0.82;100.00
13434;BME280;6789;47.678;9.158;2023-01-31T03:56:51;97817.66;;;0.67;100.00
13434;BME280;6789;47.678;9.158;2023-01-31T04:01:48;97820.09;;;0.59;100.00
13434;BME280;6789;47.678;9.158;2023-01-31T04:06:42;97819.41;;;0.57;100.00
13434;BME280;6789;47.678;9.158;2023-01-31T04:11:40;97818.03;;;0.43;100.00
13434;BME280;6789;47.678;9.158;2023-01-31T04:16:32;97811.09;;;0.25;100.00
13434;BME280;6789;47.678;9.158;2023-01-31T04:21:24;97815.72;;;0.12;100.00
13434;BME280;6789;47.678;9.158;2023-01-31T04:26:15;97837.13;;;0.03;100.00
13434;BME280;6789;47.678;9.158;2023-01-31T04:31:07;97846.81;;;-0.19;100.00
13434;BME280;6789;47.678;9.158;2023-01-31T04:35:59;97837.59;;;-0.22;100.00
13434;BME280;6789;47.678;9.158;2023-01-31T04:40:51;97844.53;;;-0.22;100.00
13434;BME280;6789;47.678;9.158;2023-01-31T04:45:43;97838.41;;;-0.21;100.00
13434;BME280;6789;47.678;9.158;2023-01-31T04:50:35;97850.09;;;-0.17;100.00
13434;BME280;6789;47.678;9.158;2023-01-31T04:55:27;97848.47;;;-0.18;100.00
13434;BME280;6789;47.678;9.158;2023-01-31T05:00:19;97849.66;;;-0.32;100.00
13434;BME280;6789;47.678;9.158;2023-01-31T05:05:25;97855.19;;;-0.36;100.00
13434;BME280;6789;47.678;9.158;2023-01-31T05:10:31;97867.06;;;-0.45;100.00
13434;BME280;6789;47.678;9.158;2023-01-31T05:15:38;97866.19;;;-0.34;100.00
13434;BME280;6789;47.678;9.158;2023-01-31T05:20:44;97877.94;;;-0.41;100.00
13434;BME280;6789;47.678;9.158;2023-01-31T05:25:50;97876.31;;;-0.42;100.00
13434;BME280;6789;47.678;9.158;2023-01-31T05:31:06;97879.41;;;-0.48;100.00
13434;BME280;6789;47.678;9.158;2023-01-31T05:36:12;97884.13;;;-0.53;100.00
13434;BME280;6789;47.678;9.158;2023-01-31T05:41:18;97894.66;;;-0.56;100.00
13434;BME280;6789;47.678;9.158;2023-01-31T05:46:23;97889.94;;;-0.51;100.00
13434;BME280;6789;47.678;9.158;2023-01-31T05:51:30;97891.25;;;-0.36;100.00
13434;BME280;6789;47.678;9.158;2023-01-31T05:56:36;97894.66;;;-0.26;100.00
13434;BME280;6789;47.678;9.158;2023-01-31T06:01:43;97900.00;;;-0.18;100.00
13434;BME280;6789;47.678;9.158;2023-01-31T06:07:22;97901.81;;;-0.09;100.00
13434;BME280;6789;47.678;9.158;2023-01-31T06:12:28;97901.00;;;-0.01;100.00
13434;BME280;6789;47.678;9.158;2023-01-31T06:17:24;97879.59;;;-0.01;100.00
13434;BME280;6789;47.678;9.158;2023-01-31T06:22:30;97887.53;;;-0.13;100.00
13434;BME280;6789;47.678;9.158;2023-01-31T06:27:36;97902.28;;;-0.25;100.00
13434;BME280;6789;47.678;9.158;2023-01-31T06:32:42;97910.69;;;-0.23;100.00
13434;BME280;6789;47.678;9.158;2023-01-31T06:37:48;97907.91;;;-0.10;100.00
13434;BME280;6789;47.678;9.158;2023-01-31T06:42:53;97914.28;;;-0.05;100.00
13434;BME280;6789;47.678;9.158;2023-01-31T06:47:59;97909.19;;;0.14;100.00
13434;BME280;6789;47.678;9.158;2023-01-31T06:53:06;97908.56;;;0.21;100.00
13434;BME280;6789;47.678;9.158;2023-01-31T06:58:15;97906.81;;;0.31;100.00
13434;BME280;6789;47.678;9.158;2023-01-31T07:03:21;97903.03;;;0.45;100.00
13434;BME280;6789;47.678;9.158;2023-01-31T07:08:27;97898.81;;;0.53;100.00
13434;BME280;6789;47.678;9.158;2023-01-31T07:13:33;97896.69;;;0.58;100.00
13434;BME280;6789;47.678;9.158;2023-01-31T07:18:39;97913.25;;;0.65;100.00
13434;BME280;6789;47.678;9.158;2023-01-31T07:23:46;97919.63;;;0.70;100.00
13434;BME280;6789;47.678;9.158;2023-01-31T07:28:53;97934.19;;;0.81;100.00
13434;BME280;6789;47.678;9.158;2023-01-31T07:34:11;97930.50;;;0.93;100.00
13434;BME280;6789;47.678;9.158;2023-01-31T07:39:18;97918.28;;;1.04;100.00
13434;BME280;6789;47.678;9.158;2023-01-31T07:44:25;97910.78;;;1.20;100.00
13434;BME280;6789;47.678;9.158;2023-01-31T07:49:35;97913.75;;;1.35;100.00
13434;BME280;6789;47.678;9.158;2023-01-31T07:54:41;97908.84;;;1.50;100.00
13434;BME280;6789;47.678;9.158;2023-01-31T07:59:34;97910.47;;;1.61;100.00
13434;BME280;6789;47.678;9.158;2023-01-31T08:04:40;97901.69;;;1.81;100.00
13434;BME280;6789;47.678;9.158;2023-01-31T08:09:47;97915.44;;;1.81;100.00
13434;BME280;6789;47.678;9.158;2023-01-31T08:15:33;97909.81;;;1.95;100.00
13434;BME280;6789;47.678;9.158;2023-01-31T08:20:39;97905.88;;;2.18;100.00
13434;BME280;6789;47.678;9.158;2023-01-31T08:25:46;97899.03;;;2.26;100.00
13434;BME280;6789;47.678;9.158;2023-01-31T08:30:57;97899.50;;;2.39;100.00
13434;BME280;6789;47.678;9.158;2023-01-31T08:36:20;97909.06;;;2.56;100.00
13434;BME280;6789;47.678;9.158;2023-01-31T08:41:34;97918.31;;;2.59;100.00
13434;BME280;6789;47.678;9.158;2023-01-31T08:46:41;97911.78;;;2.82;100.00
13434;BME280;6789;47.678;9.158;2023-01-31T08:52:10;97918.66;;;3.08;100.00
13434;BME280;6789;47.678;9.158;2023-01-31T08:57:26;97911.59;;;3.18;100.00
13434;BME280;6789;47.678;9.158;2023-01-31T09:02:31;97908.75;;;3.46;100.00
13434;BME280;6789;47.678;9.158;2023-01-31T09:07:38;97901.34;;;3.76;100.00
13434;BME280;6789;47.678;9.158;2023-01-31T09:12:44;97902.63;;;4.06;97.94
13434;BME280;6789;47.678;9.158;2023-01-31T09:17:51;97903.47;;;4.14;95.01
13434;BME280;6789;47.678;9.158;2023-01-31T09:22:57;97904.56;;;4.04;93.74
13434;BME280;6789;47.678;9.158;2023-01-31T09:28:05;97907.94;;;3.71;95.26
13434;BME280;6789;47.678;9.158;2023-01-31T09:33:11;97907.66;;;3.74;94.51
13434;BME280;6789;47.678;9.158;2023-01-31T09:38:29;97903.69;;;3.62;95.05
13434;BME280;6789;47.678;9.158;2023-01-31T09:43:43;97902.56;;;3.64;95.60
13434;BME280;6789;47.678;9.158;2023-01-31T09:48:50;97904.84;;;3.93;93.84
13434;BME280;6789;47.678;9.158;2023-01-31T09:53:50;97922.44;;;4.15;93.13
13434;BME280;6789;47.678;9.158;2023-01-31T09:59:09;97913.47;;;4.34;91.22
13434;BME280;6789;47.678;9.158;2023-01-31T10:04:33;97910.94;;;4.58;88.88
13434;BME280;6789;47.678;9.158;2023-01-31T10:15:45;97907.00;;;4.46;87.72
13434;BME280;6789;47.678;9.158;2023-01-31T10:21:04;97893.22;;;4.54;86.32
13434;BME280;6789;47.678;9.158;2023-01-31T10:26:22;97887.03;;;4.39;86.55
13434;BME280;6789;47.678;9.158;2023-01-31T10:37:18;97883.69;;;4.70;85.75
13434;BME280;6789;47.678;9.158;2023-01-31T10:42:37;97878.53;;;5.02;84.56
13434;BME280;6789;47.678;9.158;2023-01-31T10:47:52;97869.78;;;5.35;83.11
13434;BME280;6789;47.678;9.158;2023-01-31T10:53:34;97863.09;;;5.40;81.62
13434;BME280;6789;47.678;9.158;2023-01-31T10:58:49;97861.00;;;5.36;81.41
13434;BME280;6789;47.678;9.158;2023-01-31T11:09:32;97837.84;;;5.72;80.28
13434;BME280;6789;47.678;9.158;2023-01-31T11:14:27;97826.19;;;5.53;80.08
13434;BME280;6789;47.678;9.158;2023-01-31T11:19:51;97814.44;;;5.64;80.46
13434;BME280;6789;47.678;9.158;2023-01-31T11:25:06;97810.03;;;5.65;80.11
13434;BME280;6789;47.678;9.158;2023-01-31T11:30:37;97805.91;;;5.94;81.61
13434;BME280;6789;47.678;9.158;2023-01-31T11:35:52;97799.75;;;5.87;79.25
13434;BME280;6789;47.678;9.158;2023-01-31T11:40:58;97796.22;;;5.64;79.70
13434;BME280;6789;47.678;9.158;2023-01-31T11:46:07;97796.06;;;5.66;79.88
13434;BME280;6789;47.678;9.158;2023-01-31T11:51:28;97778.44;;;5.84;78.18
13434;BME280;6789;47.678;9.158;2023-01-31T11:56:42;97764.00;;;5.81;77.90
13434;BME280;6789;47.678;9.158;2023-01-31T12:01:54;97767.56;;;5.80;78.91
13434;BME280;6789;47.678;9.158;2023-01-31T12:07:17;97763.16;;;5.89;79.46
13434;BME280;6789;47.678;9.158;2023-01-31T12:12:33;97752.78;;;5.81;79.11
13434;BME280;6789;47.678;9.158;2023-01-31T12:17:56;97759.28;;;5.77;78.61
13434;BME280;6789;47.678;9.158;2023-01-31T12:23:23;97752.31;;;5.77;78.41
13434;BME280;6789;47.678;9.158;2023-01-31T13:03:30;97730.47;;;6.39;75.71
13434;BME280;6789;47.678;9.158;2023-01-31T13:08:42;97732.94;;;6.55;73.51
13434;BME280;6789;47.678;9.158;2023-01-31T13:14:05;97729.25;;;6.27;73.49
13434;BME280;6789;47.678;9.158;2023-01-31T13:24:50;97734.72;;;6.40;71.85
13434;BME280;6789;47.678;9.158;2023-01-31T13:35:34;97699.03;;;6.18;70.96
13434;BME280;6789;47.678;9.158;2023-01-31T13:40:56;97695.91;;;6.00;70.16
13434;BME280;6789;47.678;9.158;2023-01-31T13:46:06;97714.13;;;6.00;71.60
13434;BME280;6789;47.678;9.158;2023-01-31T13:56:35;97697.44;;;5.87;73.21
13434;BME280;6789;47.678;9.158;2023-01-31T14:01:49;97706.28;;;5.78;73.11
13434;BME280;6789;47.678;9.158;2023-01-31T14:22:36;97706.25;;;5.40;75.31
13434;BME280;6789;47.678;9.158;2023-01-31T14:33:22;97690.75;;;5.16;76.41
13434;BME280;6789;47.678;9.158;2023-01-31T14:50:31;97688.81;;;5.10;78.05
13434;BME280;6789;47.678;9.158;2023-01-31T15:01:20;97693.72;;;4.89;78.22
13434;BME280;6789;47.678;9.158;2023-01-31T15:06:36;97678.47;;;4.86;78.42
13434;BME280;6789;47.678;9.158;2023-01-31T15:11:51;97678.78;;;4.91;78.71
13434;BME280;6789;47.678;9.158;2023-01-31T15:23:42;97697.38;;;5.18;78.13
13434;BME280;6789;47.678;9.158;2023-01-31T15:28:52;97686.03;;;5.11;77.05
13434;BME280;6789;47.678;9.158;2023-01-31T15:34:15;97697.75;;;5.07;78.46
13434;BME280;6789;47.678;9.158;2023-01-31T15:39:40;97723.94;;;4.90;78.03
13434;BME280;6789;47.678;9.158;2023-01-31T15:44:50;97716.63;;;4.78;79.27
13434;BME280;6789;47.678;9.158;2023-01-31T15:49:56;97716.47;;;4.79;79.78
13434;BME280;6789;47.678;9.158;2023-01-31T15:55:21;97715.16;;;4.91;79.31
13434;BME280;6789;47.678;9.158;2023-01-31T16:00:35;97725.72;;;4.82;79.30
13434;BME280;6789;47.678;9.158;2023-01-31T16:05:57;97726.69;;;4.89;79.53
13434;BME280;6789;47.678;9.158;2023-01-31T16:11:29;97726.53;;;4.90;79.37
13434;BME280;6789;47.678;9.158;2023-01-31T16:16:37;97732.88;;;4.80;80.37
13434;BME280;6789;47.678;9.158;2023-01-31T16:21:47;97702.84;;;4.61;81.74
13434;BME280;6789;47.678;9.158;2023-01-31T16:27:00;97714.84;;;4.62;82.31
13434;BME280;6789;47.678;9.158;2023-01-31T16:32:28;97705.44;;;4.53;82.84
13434;BME280;6789;47.678;9.158;2023-01-31T16:37:38;97698.31;;;4.47;82.98
13434;BME280;6789;47.678;9.158;2023-01-31T16:48:30;97687.94;;;4.47;83.04
13434;BME280;6789;47.678;9.158;2023-01-31T16:53:38;97689.38;;;4.58;82.70
13434;BME280;6789;47.678;9.158;2023-01-31T16:58:56;97691.81;;;4.67;80.90
13434;BME280;6789;47.678;9.158;2023-01-31T17:04:20;97715.16;;;4.83;80.60
13434;BME280;6789;47.678;9.158;2023-01-31T17:09:26;97721.00;;;4.85;79.91
13434;BME280;6789;47.678;9.158;2023-01-31T17:14:33;97744.22;;;4.79;80.47
13434;BME280;6789;47.678;9.158;2023-01-31T17:19:41;97762.41;;;4.79;80.65
13434;BME280;6789;47.678;9.158;2023-01-31T17:24:48;97743.28;;;4.64;80.66
13434;BME280;6789;47.678;9.158;2023-01-31T17:29:54;97747.16;;;4.60;81.20
13434;BME280;6789;47.678;9.158;2023-01-31T17:35:00;97737.59;;;4.52;82.26
13434;BME280;6789;47.678;9.158;2023-01-31T17:40:12;97753.81;;;4.54;82.21
13434;BME280;6789;47.678;9.158;2023-01-31T17:45:18;97733.34;;;4.51;82.22
13434;BME280;6789;47.678;9.158;2023-01-31T17:50:27;97744.22;;;4.55;82.23
13434;BME280;6789;47.678;9.158;2023-01-31T17:55:33;97747.97;;;4.60;82.64
13434;BME280;6789;47.678;9.158;2023-01-31T18:00:40;97745.06;;;4.55;83.13
13434;BME280;6789;47.678;9.158;2023-01-31T18:06:10;97761.44;;;4.56;83.20
13434;BME280;6789;47.678;9.158;2023-01-31T18:11:17;97762.25;;;4.56;82.91
13434;BME280;6789;47.678;9.158;2023-01-31T18:16:25;97769.41;;;4.70;81.95
13434;BME280;6789;47.678;9.158;2023-01-31T18:21:31;97778.03;;;4.71;82.80
13434;BME280;6789;47.678;9.158;2023-01-31T18:26:38;97782.41;;;4.78;81.85
13434;BME280;6789;47.678;9.158;2023-01-31T18:31:46;97782.69;;;4.75;82.20
13434;BME280;6789;47.678;9.158;2023-01-31T18:36:52;97795.38;;;4.78;82.20
13434;BME280;6789;47.678;9.158;2023-01-31T18:41:59;97798.28;;;4.75;82.25
13434;BME280;6789;47.678;9.158;2023-01-31T18:47:05;97786.31;;;4.74;82.52
13434;BME280;6789;47.678;9.158;2023-01-31T18:52:12;97777.84;;;4.64;82.18
13434;BME280;6789;47.678;9.158;2023-01-31T18:57:17;97784.50;;;4.59;82.90
13434;BME280;6789;47.678;9.158;2023-01-31T19:02:24;97780.13;;;4.59;82.84
13434;BME280;6789;47.678;9.158;2023-01-31T19:07:30;97776.06;;;4.57;83.30
13434;BME280;6789;47.678;9.158;2023-01-31T19:12:36;97760.78;;;4.54;83.55
13434;BME280;6789;47.678;9.158;2023-01-31T19:17:43;97772.00;;;4.54;83.32
13434;BME280;6789;47.678;9.158;2023-01-31T19:22:52;97783.00;;;4.56;82.85
13434;BME280;6789;47.678;9.158;2023-01-31T19:27:57;97792.44;;;4.57;82.97
13434;BME280;6789;47.678;9.158;2023-01-31T19:33:07;97798.09;;;4.53;83.16
13434;BME280;6789;47.678;9.158;2023-01-31T19:38:13;97783.19;;;4.55;83.50
13434;BME280;6789;47.678;9.158;2023-01-31T19:43:19;97790.66;;;4.58;83.88
13434;BME280;6789;47.678;9.158;2023-01-31T19:48:27;97795.03;;;4.57;83.38
13434;BME280;6789;47.678;9.158;2023-01-31T19:53:36;97796.66;;;4.58;83.36
13434;BME280;6789;47.678;9.158;2023-01-31T19:58:54;97786.63;;;4.55;84.04
13434;BME280;6789;47.678;9.158;2023-01-31T20:04:02;97781.06;;;4.50;84.06
13434;BME280;6789;47.678;9.158;2023-01-31T20:09:08;97783.66;;;4.50;84.47
13434;BME280;6789;47.678;9.158;2023-01-31T20:14:19;97764.22;;;4.54;84.75
13434;BME280;6789;47.678;9.158;2023-01-31T20:19:25;97767.78;;;4.53;84.63
13434;BME280;6789;47.678;9.158;2023-01-31T20:24:33;97763.72;;;4.59;84.68
13434;BME280;6789;47.678;9.158;2023-01-31T20:29:39;97789.22;;;4.55;84.81
13434;BME280;6789;47.678;9.158;2023-01-31T20:34:48;97796.66;;;4.58;84.35
13434;BME280;6789;47.678;9.158;2023-01-31T20:39:54;97785.47;;;4.58;84.96
13434;BME280;6789;47.678;9.158;2023-01-31T20:45:01;97787.25;;;4.65;84.28
13434;BME280;6789;47.678;9.158;2023-01-31T20:50:10;97779.63;;;4.64;84.64
13434;BME280;6789;47.678;9.158;2023-01-31T20:55:08;97784.66;;;4.65;85.10
13434;BME280;6789;47.678;9.158;2023-01-31T21:00:18;97764.84;;;4.64;85.39
13434;BME280;6789;47.678;9.158;2023-01-31T21:05:29;97751.22;;;4.70;85.76
13434;BME280;6789;47.678;9.158;2023-01-31T21:10:38;97740.50;;;4.65;85.82
13434;BME280;6789;47.678;9.158;2023-01-31T21:15:50;97742.75;;;4.68;85.93
13434;BME280;6789;47.678;9.158;2023-01-31T21:20:57;97746.50;;;4.82;85.82
13434;BME280;6789;47.678;9.158;2023-01-31T21:26:08;97739.53;;;4.74;86.38
13434;BME280;6789;47.678;9.158;2023-01-31T21:31:19;97734.16;;;4.99;84.93
13434;BME280;6789;47.678;9.158;2023-01-31T21:36:25;97717.75;;;4.99;85.47
13434;BME280;6789;47.678;9.158;2023-01-31T21:41:31;97729.44;;;5.03;85.54
13434;BME280;6789;47.678;9.158;2023-01-31T21:46:55;97724.25;;;4.87;85.56
13434;BME280;6789;47.678;9.158;2023-01-31T21:52:01;97726.84;;;4.87;86.30
13434;BME280;6789;47.678;9.158;2023-01-31T21:57:07;97734.97;;;4.92;86.05
13434;BME280;6789;47.678;9.158;2023-01-31T22:02:13;97726.69;;;4.81;86.96
13434;BME280;6789;47.678;9.158;2023-01-31T22:07:19;97717.94;;;4.74;87.72
13434;BME280;6789;47.678;9.158;2023-01-31T22:12:25;97705.59;;;4.76;87.45
13434;BME280;6789;47.678;9.158;2023-01-31T22:17:31;97710.63;;;4.77;87.42
13434;BME280;6789;47.678;9.158;2023-01-31T22:22:36;97714.03;;;4.78;87.45
13434;BME280;6789;47.678;9.158;2023-01-31T22:27:42;97717.13;;;4.73;87.26
13434;BME280;6789;47.678;9.158;2023-01-31T22:32:48;97695.03;;;4.69;88.16
13434;BME280;6789;47.678;9.158;2023-01-31T22:37:54;97680.09;;;4.71;87.92
13434;BME280;6789;47.678;9.158;2023-01-31T22:42:59;97675.56;;;4.65;88.02
13434;BME280;6789;47.678;9.158;2023-01-31T22:48:05;97675.25;;;4.60;88.28
13434;BME280;6789;47.678;9.158;2023-01-31T22:53:02;97673.63;;;4.59;88.09
13434;BME280;6789;47.678;9.158;2023-01-31T22:58:08;97665.84;;;4.59;88.24
13434;BME280;6789;47.678;9.158;2023-01-31T23:03:14;97658.06;;;4.59;87.83
13434;BME280;6789;47.678;9.158;2023-01-31T23:08:20;97660.66;;;4.59;88.33
13434;BME280;6789;47.678;9.158;2023-01-31T23:13:16;97650.25;;;4.67;88.41
13434;BME280;6789;47.678;9.158;2023-01-31T23:18:22;97647.00;;;4.65;88.09
13434;BME280;6789;47.678;9.158;2023-01-31T23:23:28;97633.72;;;4.60;88.11
13434;BME280;6789;47.678;9.158;2023-01-31T23:28:33;97627.84;;;4.66;87.92
13434;BME280;6789;47.678;9.158;2023-01-31T23:33:39;97625.75;;;4.62;87.84
13434;BME280;6789;47.678;9.158;2023-01-31T23:38:45;97616.50;;;4.59;87.58
13434;BME280;6789;47.678;9.158;2023-01-31T23:43:51;97612.59;;;4.63;86.55
13434;BME280;6789;47.678;9.158;2023-01-31T23:48:56;97605.31;;;4.59;87.16
13434;BME280;6789;47.678;9.158;2023-01-31T23:54:03;97614.88;;;4.58;86.53
13434;BME280;6789;47.678;9.158;2023-01-31T23:59:09;97623.94;;;4.70;86.22
